createdAt,value
2023-04-21T00:02:18.573Z,6.83
2023-04-21T00:04:45.920Z,6.76
2023-04-21T00:07:14.701Z,6.69
2023-04-21T00:09:41.525Z,6.66
2023-04-21T00:12:08.163Z,6.63
2023-04-21T00:14:34.651Z,6.58
2023-04-21T00:17:01.040Z,6.54
2023-04-21T00:19:28.923Z,6.52
2023-04-21T00:21:59.037Z,6.52
2023-04-21T00:24:26.119Z,6.49
2023-04-21T00:26:52.885Z,6.41
2023-04-21T00:29:19.592Z,6.37
2023-04-21T00:31:46.543Z,6.34
2023-04-21T00:34:13.033Z,6.31
2023-04-21T00:36:39.508Z,6.27
2023-04-21T00:39:06.202Z,6.25
2023-04-21T00:41:34.135Z,6.24
2023-04-21T00:44:07.340Z,6.22
2023-04-21T00:46:35.320Z,6.15
2023-04-21T00:49:05.041Z,6.23
2023-04-21T00:51:33.166Z,6.15
2023-04-21T00:54:00.593Z,6.08
2023-04-21T00:56:28.928Z,6.11
2023-04-21T00:58:55.520Z,6.07
2023-04-21T01:01:22.690Z,5.98
2023-04-21T01:03:50.604Z,5.92
2023-04-21T01:06:18.083Z,5.85
2023-04-21T01:08:46.457Z,5.81
2023-04-21T01:11:13.746Z,5.79
2023-04-21T01:13:40.805Z,5.81
2023-04-21T01:16:08.286Z,5.73
2023-04-21T01:18:36.446Z,5.75
2023-04-21T01:21:04.340Z,5.63
2023-04-21T01:23:31.112Z,5.54
2023-04-21T01:25:57.863Z,5.50
2023-04-21T01:28:25.646Z,5.48
2023-04-21T01:30:52.951Z,5.44
2023-04-21T01:33:20.669Z,5.38
2023-04-21T01:35:47.495Z,5.37
2023-04-21T01:38:19.516Z,5.35
2023-04-21T01:40:49.326Z,5.32
2023-04-21T01:43:17.856Z,5.28
2023-04-21T01:45:44.820Z,5.25
2023-04-21T01:48:11.624Z,5.19
2023-04-21T01:50:38.309Z,5.12
2023-04-21T01:53:05.030Z,5.12
2023-04-21T01:55:31.791Z,5.09
2023-04-21T01:57:59.384Z,5.05
2023-04-21T02:00:26.737Z,5.05
2023-04-21T02:02:53.709Z,5.00
2023-04-21T02:05:20.794Z,5.01
2023-04-21T02:07:47.446Z,5.00
2023-04-21T02:10:14.013Z,4.91
2023-04-21T02:12:40.866Z,4.96
2023-04-21T02:15:08.015Z,4.85
2023-04-21T02:17:34.849Z,4.88
2023-04-21T02:20:03.981Z,4.81
2023-04-21T02:22:31.552Z,4.82
2023-04-21T02:24:58.109Z,4.79
2023-04-21T02:27:24.711Z,4.71
2023-04-21T02:29:51.631Z,4.68
2023-04-21T02:32:25.422Z,4.64
2023-04-21T02:34:52.856Z,4.62
2023-04-21T02:37:20.019Z,4.57
2023-04-21T02:39:46.588Z,4.59
2023-04-21T02:42:13.250Z,4.56
2023-04-21T02:44:39.927Z,4.52
2023-04-21T02:47:06.606Z,4.48
2023-04-21T02:49:33.140Z,4.43
2023-04-21T02:51:59.726Z,4.44
2023-04-21T02:54:27.335Z,4.37
2023-04-21T02:56:53.881Z,4.36
2023-04-21T02:59:20.657Z,4.39
2023-04-21T03:01:49.171Z,4.41
2023-04-21T03:04:15.814Z,4.36
2023-04-21T03:06:42.572Z,4.36
2023-04-21T03:09:09.356Z,4.32
2023-04-21T03:11:36.527Z,4.25
2023-04-21T03:14:03.061Z,4.19
2023-04-21T03:16:29.689Z,4.19
2023-04-21T03:18:56.324Z,4.16
2023-04-21T03:21:22.998Z,4.12
2023-04-21T03:23:49.409Z,4.10
2023-04-21T03:26:16.468Z,4.06
2023-04-21T03:28:42.944Z,4.06
2023-04-21T03:31:09.362Z,4.03
2023-04-21T03:33:36.049Z,4.08
2023-04-21T03:36:02.478Z,3.96
2023-04-21T03:38:29.197Z,3.92
2023-04-21T03:40:55.860Z,3.90
2023-04-21T03:43:22.337Z,3.85
2023-04-21T03:45:48.783Z,3.83
2023-04-21T03:48:15.297Z,3.84
2023-04-21T03:50:41.771Z,3.87
2023-04-21T03:53:08.163Z,3.88
2023-04-21T03:55:34.607Z,3.86
2023-04-21T03:58:00.991Z,3.91
2023-04-21T04:00:27.615Z,3.92
2023-04-21T04:02:54.215Z,3.99
2023-04-21T04:05:20.838Z,3.89
2023-04-21T04:07:47.382Z,3.95
2023-04-21T04:10:13.923Z,3.95
2023-04-21T04:12:40.419Z,3.97
2023-04-21T04:15:07.734Z,4.07
2023-04-21T04:17:34.357Z,4.10
2023-04-21T04:20:01.878Z,4.17
2023-04-21T04:22:28.365Z,4.07
2023-04-21T04:24:55.630Z,4.10
2023-04-21T04:27:22.159Z,4.14
2023-04-21T04:29:50.224Z,4.20
2023-04-21T04:32:17.599Z,4.22
2023-04-21T04:34:44.118Z,4.31
2023-04-21T04:37:11.352Z,4.29
2023-04-21T04:39:38.155Z,4.41
2023-04-21T04:42:09.142Z,4.43
2023-04-21T04:44:36.370Z,4.53
2023-04-21T04:47:03.151Z,4.54
2023-04-21T04:49:29.735Z,4.63
2023-04-21T04:51:56.585Z,4.76
2023-04-21T04:54:23.169Z,4.92
2023-04-21T04:56:49.632Z,4.91
2023-04-21T04:59:16.219Z,4.91
2023-04-21T05:01:43.306Z,5.02
2023-04-21T05:04:09.922Z,5.09
2023-04-21T05:06:37.225Z,5.24
2023-04-21T05:09:04.880Z,5.20
2023-04-21T05:11:31.385Z,5.41
2023-04-21T05:13:57.781Z,5.92
2023-04-21T05:16:24.395Z,6.04
2023-04-21T05:18:53.758Z,6.36
2023-04-21T05:21:29.374Z,6.71
2023-04-21T05:23:56.547Z,6.82
2023-04-21T05:26:23.405Z,7.25
2023-04-21T05:28:50.056Z,7.95
2023-04-21T05:31:16.524Z,8.14
2023-04-21T05:33:42.984Z,8.23
2023-04-21T05:36:10.395Z,7.99
2023-04-21T05:38:37.381Z,8.41
2023-04-21T05:41:04.502Z,8.13
2023-04-21T05:43:34.502Z,8.85
2023-04-21T05:46:01.812Z,8.60
2023-04-21T05:48:31.106Z,9.27
2023-04-21T05:50:57.622Z,9.66
2023-04-21T05:53:24.031Z,9.70
2023-04-21T05:55:50.792Z,9.92
2023-04-21T05:58:17.204Z,10.28
2023-04-21T06:00:43.603Z,10.66
2023-04-21T06:03:10.359Z,11.40
2023-04-21T06:05:36.983Z,11.78
2023-04-21T06:08:03.650Z,12.90
2023-04-21T06:10:30.935Z,14.94
2023-04-21T06:12:57.981Z,16.03
2023-04-21T06:15:24.493Z,16.94
2023-04-21T06:17:55.280Z,17.31
2023-04-21T06:20:21.774Z,17.91
2023-04-21T06:22:48.287Z,18.88
2023-04-21T06:25:14.706Z,19.13
2023-04-21T06:27:41.132Z,18.23
2023-04-21T06:30:08.327Z,20.32
2023-04-21T06:32:34.800Z,19.54
2023-04-21T06:35:01.197Z,20.11
2023-04-21T06:37:27.669Z,19.91
2023-04-21T06:39:54.492Z,21.28
2023-04-21T06:42:21.080Z,21.78
2023-04-21T06:44:48.941Z,22.17
2023-04-21T06:47:17.086Z,21.95
2023-04-21T06:49:43.635Z,21.41
2023-04-21T06:52:10.028Z,20.79
2023-04-21T06:54:36.544Z,22.18
2023-04-21T06:57:03.036Z,22.42
2023-04-21T06:59:29.545Z,23.20
2023-04-21T07:01:56.245Z,23.35
2023-04-21T07:04:24.540Z,23.99
2023-04-21T07:06:51.088Z,22.99
2023-04-21T07:09:18.129Z,21.61
2023-04-21T07:11:44.897Z,22.65
2023-04-21T07:14:11.264Z,22.52
2023-04-21T07:16:37.923Z,22.96
2023-04-21T07:19:04.440Z,22.75
2023-04-21T07:21:32.077Z,22.03
2023-04-21T07:23:58.976Z,21.61
2023-04-21T07:26:25.586Z,23.23
2023-04-21T07:28:52.826Z,20.94
2023-04-21T07:31:19.722Z,23.37
2023-04-21T07:33:46.216Z,24.78
2023-04-21T07:36:12.857Z,25.97
2023-04-21T07:38:43.187Z,25.58
2023-04-21T07:41:13.928Z,23.65
2023-04-21T07:43:40.722Z,25.20
2023-04-21T07:46:07.632Z,26.22
2023-04-21T07:48:34.571Z,27.33
2023-04-21T07:51:02.192Z,26.88
2023-04-21T07:53:29.069Z,24.26
2023-04-21T07:55:55.841Z,25.44
2023-04-21T07:58:22.337Z,26.20
2023-04-21T08:00:49.217Z,27.83
2023-04-21T08:03:16.212Z,28.23
2023-04-21T08:05:42.737Z,26.20
2023-04-21T08:08:09.361Z,26.54
2023-04-21T08:10:35.964Z,27.98
2023-04-21T08:13:06.154Z,29.41
2023-04-21T08:15:33.898Z,28.68
2023-04-21T08:18:00.455Z,28.51
2023-04-21T08:20:27.025Z,28.27
2023-04-21T08:22:53.484Z,27.20
2023-04-21T08:25:20.244Z,28.10
2023-04-21T08:27:46.679Z,27.18
2023-04-21T08:30:13.540Z,25.97
2023-04-21T08:32:40.226Z,25.66
2023-04-21T08:35:07.246Z,26.58
2023-04-21T08:37:36.576Z,27.05
2023-04-21T08:40:07.102Z,25.97
2023-04-21T08:42:34.693Z,25.67
2023-04-21T08:45:01.107Z,28.08
2023-04-21T08:47:28.897Z,27.26
2023-04-21T08:49:56.942Z,28.11
2023-04-21T08:52:23.355Z,27.84
2023-04-21T08:54:52.825Z,25.37
2023-04-21T08:57:19.535Z,23.48
2023-04-21T08:59:46.203Z,23.28
2023-04-21T09:02:15.965Z,23.45
2023-04-21T09:04:44.841Z,23.77
2023-04-21T09:07:12.174Z,23.87
2023-04-21T09:10:08.172Z,23.23
2023-04-21T09:12:34.611Z,24.99
2023-04-21T09:15:05.404Z,26.34
2023-04-21T09:17:33.570Z,25.26
2023-04-21T09:20:17.944Z,24.55
2023-04-21T09:22:45.301Z,24.89
2023-04-21T09:25:16.608Z,24.64
2023-04-21T09:27:43.110Z,24.27
2023-04-21T09:30:09.936Z,25.04
2023-04-21T09:32:38.200Z,24.32
2023-04-21T09:35:06.484Z,25.24
2023-04-21T09:37:34.560Z,26.28
2023-04-21T09:42:30.847Z,26.15
2023-04-21T09:45:16.502Z,27.88
2023-04-21T09:47:51.314Z,29.11
2023-04-21T09:50:33.382Z,27.07
2023-04-21T09:53:07.244Z,26.71
2023-04-21T09:55:34.607Z,26.35
2023-04-21T09:58:02.611Z,25.49
2023-04-21T10:00:31.115Z,23.11
2023-04-21T10:02:58.728Z,23.97
2023-04-21T10:05:25.953Z,24.26
2023-04-21T10:07:52.789Z,23.89
2023-04-21T10:10:24.264Z,23.50
2023-04-21T10:12:51.702Z,24.24
2023-04-21T10:15:40.874Z,26.60
2023-04-21T10:18:14.522Z,26.27
2023-04-21T10:20:54.230Z,25.87
2023-04-21T10:23:27.749Z,23.88
2023-04-21T10:25:55.407Z,25.16
2023-04-21T10:28:39.580Z,25.39
2023-04-21T10:31:20.083Z,27.33
2023-04-21T10:34:08.324Z,25.87
2023-04-21T10:36:36.158Z,26.38
2023-04-21T10:39:04.157Z,27.79
2023-04-21T10:41:32.216Z,26.81
2023-04-21T10:44:12.137Z,26.16
2023-04-21T10:46:49.100Z,25.18
2023-04-21T10:49:32.268Z,24.73
2023-04-21T10:52:02.579Z,24.25
2023-04-21T10:54:47.815Z,25.83
2023-04-21T10:57:19.659Z,27.01
2023-04-21T10:59:47.310Z,26.42
2023-04-21T11:02:16.664Z,24.94
2023-04-21T11:04:49.548Z,24.85
2023-04-21T11:07:25.504Z,24.45
2023-04-21T11:10:04.134Z,25.21
2023-04-21T11:12:32.710Z,25.49
2023-04-21T11:14:59.378Z,25.12
2023-04-21T11:17:26.475Z,26.19
2023-04-21T11:19:56.657Z,25.08
2023-04-21T11:22:24.184Z,25.94
2023-04-21T11:24:53.849Z,25.65
2023-04-21T11:27:22.312Z,25.58
2023-04-21T11:29:50.518Z,26.87
2023-04-21T11:32:17.398Z,24.91
2023-04-21T11:34:44.230Z,23.60
2023-04-21T11:37:16.257Z,23.46
2023-04-21T11:39:43.849Z,21.77
2023-04-21T11:42:11.779Z,23.13
2023-04-21T11:44:42.084Z,23.92
2023-04-21T11:47:22.312Z,24.62
2023-04-21T11:49:57.016Z,24.89
2023-04-21T11:52:34.525Z,24.41
2023-04-21T11:55:03.575Z,24.23
2023-04-21T11:57:31.284Z,24.06
2023-04-21T12:00:02.158Z,24.36
2023-04-21T12:02:30.583Z,24.49
2023-04-21T12:05:26.845Z,23.50
2023-04-21T12:07:56.162Z,23.12
2023-04-21T12:10:22.655Z,23.52
2023-04-21T12:12:49.270Z,22.23
2023-04-21T12:15:20.500Z,22.11
2023-04-21T12:17:52.645Z,22.49
2023-04-21T12:20:20.651Z,22.66
2023-04-21T12:22:48.148Z,23.10
2023-04-21T12:25:14.869Z,23.20
2023-04-21T12:27:54.392Z,22.71
2023-04-21T12:30:21.337Z,22.96
2023-04-21T12:32:48.227Z,23.53
2023-04-21T12:35:15.038Z,23.61
2023-04-21T12:37:42.027Z,24.02
2023-04-21T12:40:08.980Z,24.21
2023-04-21T12:42:37.795Z,23.60
2023-04-21T12:45:05.667Z,23.31
2023-04-21T12:47:32.293Z,23.10
2023-04-21T12:49:58.812Z,23.41
2023-04-21T12:52:25.390Z,23.06
2023-04-21T12:54:51.920Z,23.15
2023-04-21T12:57:18.796Z,23.04
2023-04-21T12:59:46.556Z,23.10
2023-04-21T13:02:13.308Z,23.17
2023-04-21T13:04:42.163Z,23.76
2023-04-21T13:07:09.176Z,23.38
2023-04-21T13:09:35.627Z,23.76
2023-04-21T13:12:02.217Z,22.65
2023-04-21T13:14:29.203Z,23.02
2023-04-21T13:16:56.011Z,24.09
2023-04-21T13:19:22.567Z,24.47
2023-04-21T13:21:49.027Z,23.75
2023-04-21T13:24:15.608Z,24.07
2023-04-21T13:26:42.070Z,24.23
2023-04-21T13:29:08.974Z,24.57
2023-04-21T13:31:36.740Z,24.01
2023-04-21T13:34:03.464Z,23.04
2023-04-21T13:36:30.048Z,22.55
2023-04-21T13:38:56.640Z,22.92
2023-04-21T13:41:23.143Z,22.39
2023-04-21T13:43:50.127Z,21.84
2023-04-21T13:46:16.687Z,21.35
2023-04-21T13:48:44.884Z,21.11
2023-04-21T13:53:37.715Z,21.27
2023-04-21T13:56:04.550Z,21.33
2023-04-21T13:58:31.003Z,21.39
2023-04-21T14:00:57.845Z,21.28
2023-04-21T14:03:24.504Z,21.57
2023-04-21T14:05:51.349Z,21.30
2023-04-21T14:08:18.089Z,21.16
2023-04-21T14:10:44.598Z,21.20
2023-04-21T14:13:17.436Z,20.95
2023-04-21T14:15:53.878Z,21.02
2023-04-21T14:18:20.583Z,20.82
2023-04-21T14:20:47.225Z,20.84
2023-04-21T14:23:13.705Z,21.11
2023-04-21T14:25:40.330Z,21.42
2023-04-21T14:28:08.728Z,21.52
2023-04-21T14:30:38.481Z,21.39
2023-04-21T14:33:05.342Z,21.03
2023-04-21T14:35:32.961Z,21.26
2023-04-21T14:37:59.629Z,20.82
2023-04-21T14:40:26.157Z,20.75
2023-04-21T14:42:52.543Z,20.86
2023-04-21T14:45:19.055Z,21.15
2023-04-21T14:47:45.659Z,21.21
2023-04-21T14:50:12.205Z,21.60
2023-04-21T14:52:38.831Z,21.80
2023-04-21T14:55:05.849Z,21.52
2023-04-21T14:57:32.258Z,21.23
2023-04-21T14:59:58.719Z,20.71
2023-04-21T15:02:25.343Z,20.92
2023-04-21T15:04:52.004Z,21.10
2023-04-21T15:07:23.705Z,21.56
2023-04-21T15:09:52.127Z,21.65
2023-04-21T15:12:18.785Z,21.55
2023-04-21T15:14:45.400Z,21.36
2023-04-21T15:17:12.291Z,21.17
2023-04-21T15:19:38.812Z,21.12
2023-04-21T15:22:05.456Z,20.67
2023-04-21T15:24:31.872Z,20.54
2023-04-21T15:26:58.504Z,20.53
2023-04-21T15:29:25.264Z,20.29
2023-04-21T15:31:51.713Z,20.40
2023-04-21T15:34:18.183Z,20.57
2023-04-21T15:36:44.607Z,20.49
2023-04-21T15:39:13.944Z,20.30
2023-04-21T15:41:40.932Z,20.14
2023-04-21T15:44:07.828Z,20.49
2023-04-21T15:46:34.794Z,20.61
2023-04-21T15:49:02.834Z,20.22
2023-04-21T15:51:32.342Z,19.81
2023-04-21T15:53:58.969Z,20.07
2023-04-21T15:56:26.218Z,19.98
2023-04-21T15:58:53.310Z,20.32
2023-04-21T16:01:20.097Z,20.58
2023-04-21T16:03:47.630Z,20.19
2023-04-21T16:06:15.051Z,20.16
2023-04-21T16:08:41.476Z,20.35
2023-04-21T16:11:08.052Z,20.01
2023-04-21T16:13:34.666Z,20.06
2023-04-21T16:16:05.154Z,19.94
2023-04-21T16:18:32.203Z,20.19
2023-04-21T16:20:58.740Z,20.12
2023-04-21T16:23:27.040Z,20.39
2023-04-21T16:25:54.769Z,20.00
2023-04-21T16:28:21.318Z,19.66
2023-04-21T16:30:48.364Z,19.59
2023-04-21T16:33:14.999Z,19.31
2023-04-21T16:35:41.836Z,19.05
2023-04-21T16:38:08.676Z,18.93
2023-04-21T16:40:35.348Z,19.03
2023-04-21T16:43:02.069Z,19.04
2023-04-21T16:45:29.637Z,19.04
2023-04-21T16:47:57.125Z,18.81
2023-04-21T16:50:23.806Z,18.89
2023-04-21T16:52:50.619Z,18.87
2023-04-21T16:55:17.215Z,18.92
2023-04-21T16:57:43.922Z,18.92
2023-04-21T17:00:10.740Z,18.98
2023-04-21T17:02:37.367Z,18.94
2023-04-21T17:05:04.313Z,18.92
2023-04-21T17:07:34.212Z,18.82
2023-04-21T17:10:00.831Z,18.67
2023-04-21T17:12:27.614Z,18.63
2023-04-21T17:14:54.063Z,18.53
2023-04-21T17:17:20.581Z,18.37
2023-04-21T17:19:46.981Z,18.24
2023-04-21T17:22:14.112Z,18.24
2023-04-21T17:24:52.324Z,18.12
2023-04-21T17:27:20.001Z,18.03
2023-04-21T17:29:47.015Z,17.85
2023-04-21T17:32:14.286Z,17.78
2023-04-21T17:34:41.036Z,17.69
2023-04-21T17:37:07.514Z,17.58
2023-04-21T17:39:33.911Z,17.45
2023-04-21T17:42:02.621Z,17.37
2023-04-21T17:44:29.286Z,17.24
2023-04-21T17:46:55.895Z,17.19
2023-04-21T17:49:24.501Z,17.20
2023-04-21T17:51:51.259Z,17.06
2023-04-21T17:54:17.702Z,16.97
2023-04-21T17:56:46.137Z,16.96
2023-04-21T17:59:12.790Z,16.84
2023-04-21T18:01:39.240Z,16.91
2023-04-21T18:04:05.913Z,16.75
2023-04-21T18:06:32.478Z,16.63
2023-04-21T18:08:59.155Z,16.55
2023-04-21T18:11:25.698Z,16.46
2023-04-21T18:13:52.927Z,16.39
2023-04-21T18:16:19.490Z,16.27
2023-04-21T18:18:47.333Z,16.21
2023-04-21T18:21:14.729Z,16.30
2023-04-21T18:23:41.264Z,16.13
2023-04-21T18:26:08.427Z,16.11
2023-04-21T18:28:35.615Z,15.94
2023-04-21T18:31:02.198Z,16.02
2023-04-21T18:33:28.974Z,15.79
2023-04-21T18:35:55.619Z,15.82
2023-04-21T18:38:22.221Z,15.67
2023-04-21T18:40:48.751Z,15.67
2023-04-21T18:43:15.703Z,15.62
2023-04-21T18:45:42.168Z,15.45
2023-04-21T18:48:08.758Z,15.44
2023-04-21T18:50:39.760Z,15.37
2023-04-21T18:53:07.928Z,15.42
2023-04-21T18:55:35.916Z,15.46
2023-04-21T18:58:02.915Z,15.40
2023-04-21T19:00:30.245Z,15.37
2023-04-21T19:02:56.899Z,15.29
2023-04-21T19:05:23.710Z,15.32
2023-04-21T19:07:50.306Z,15.39
2023-04-21T19:10:17.130Z,15.25
2023-04-21T19:12:43.841Z,15.17
2023-04-21T19:15:10.604Z,15.11
2023-04-21T19:17:37.223Z,15.10
2023-04-21T19:20:04.202Z,15.06
2023-04-21T19:22:31.969Z,14.97
2023-04-21T19:24:58.467Z,14.98
2023-04-21T19:27:24.938Z,14.87
2023-04-21T19:29:51.510Z,14.84
2023-04-21T19:32:18.123Z,14.93
2023-04-21T19:34:44.742Z,14.78
2023-04-21T19:37:12.437Z,14.72
2023-04-21T19:39:39.238Z,14.72
2023-04-21T19:42:05.891Z,14.74
2023-04-21T19:44:32.442Z,14.62
2023-04-21T19:46:59.342Z,14.59
2023-04-21T19:49:26.102Z,14.58
2023-04-21T19:51:52.604Z,14.48
2023-04-21T19:54:19.102Z,14.58
2023-04-21T19:56:45.753Z,14.49
2023-04-21T19:59:12.385Z,14.39
2023-04-21T20:01:39.067Z,14.30
2023-04-21T20:04:06.769Z,14.33
2023-04-21T20:06:33.554Z,14.21
2023-04-21T20:09:00.168Z,14.11
2023-04-21T20:11:28.943Z,13.93
2023-04-21T20:13:56.030Z,13.71
2023-04-21T20:16:23.855Z,13.67
2023-04-21T20:18:50.456Z,13.62
2023-04-21T20:21:16.965Z,13.47
2023-04-21T20:23:43.497Z,13.31
2023-04-21T20:26:10.055Z,13.29
2023-04-21T20:28:36.638Z,13.15
2023-04-21T20:31:03.291Z,13.14
2023-04-21T20:33:30.412Z,13.00
2023-04-21T20:35:57.944Z,12.86
2023-04-21T20:38:24.751Z,12.86
2023-04-21T20:40:52.409Z,12.69
2023-04-21T20:43:18.952Z,12.72
2023-04-21T20:45:47.153Z,12.72
2023-04-21T20:48:14.210Z,12.58
2023-04-21T20:50:41.737Z,12.49
2023-04-21T20:53:09.818Z,12.40
2023-04-21T20:55:36.457Z,12.41
2023-04-21T20:58:04.019Z,12.22
2023-04-21T21:00:32.889Z,12.13
2023-04-21T21:02:59.813Z,11.96
2023-04-21T21:05:33.147Z,11.86
2023-04-21T21:07:59.654Z,11.76
2023-04-21T21:10:26.263Z,11.75
2023-04-21T21:12:52.713Z,11.70
2023-04-21T21:15:19.345Z,11.78
2023-04-21T21:17:45.935Z,11.77
2023-04-21T21:20:12.522Z,11.76
2023-04-21T21:22:38.981Z,11.69
2023-04-21T21:25:05.872Z,11.64
2023-04-21T21:27:32.307Z,11.53
2023-04-21T21:29:58.832Z,11.41
2023-04-21T21:32:25.808Z,11.28
2023-04-21T21:34:52.352Z,11.24
2023-04-21T21:37:19.133Z,11.18
2023-04-21T21:39:45.648Z,11.02
2023-04-21T21:42:12.122Z,11.02
2023-04-21T21:44:38.726Z,10.83
2023-04-21T21:47:05.483Z,10.75
2023-04-21T21:49:32.311Z,10.61
2023-04-21T21:51:58.926Z,10.56
2023-04-21T21:54:25.886Z,10.49
2023-04-21T21:56:52.474Z,10.44
2023-04-21T21:59:18.985Z,10.38
2023-04-21T22:01:45.554Z,10.30
2023-04-21T22:04:12.078Z,10.24
2023-04-21T22:06:39.111Z,10.12
2023-04-21T22:09:06.159Z,10.09
2023-04-21T22:11:32.635Z,10.10
2023-04-21T22:14:07.733Z,10.03
2023-04-21T22:16:37.892Z,10.02
2023-04-21T22:19:05.824Z,9.95
2023-04-21T22:21:32.337Z,9.81
2023-04-21T22:23:58.798Z,9.73
2023-04-21T22:26:25.260Z,9.65
2023-04-21T22:28:54.630Z,9.65
2023-04-21T22:31:22.520Z,9.55
2023-04-21T22:33:49.084Z,9.50
2023-04-21T22:36:15.690Z,9.46
2023-04-21T22:38:43.643Z,9.40
2023-04-21T22:41:10.873Z,9.36
2023-04-21T22:43:37.341Z,9.36
2023-04-21T22:46:03.871Z,9.35
2023-04-21T22:48:32.631Z,9.39
2023-04-21T22:50:59.644Z,9.38
2023-04-21T22:53:26.194Z,9.36
2023-04-21T22:55:52.698Z,9.34
2023-04-21T22:58:19.171Z,9.36
2023-04-21T23:00:45.681Z,9.52
2023-04-21T23:03:12.419Z,9.62
2023-04-21T23:05:39.002Z,9.82
2023-04-21T23:08:05.617Z,9.79
2023-04-21T23:10:32.216Z,9.77
2023-04-21T23:12:59.377Z,9.68
2023-04-21T23:15:27.772Z,9.75
2023-04-21T23:17:54.902Z,9.60
2023-04-21T23:20:22.226Z,9.58
2023-04-21T23:22:48.862Z,9.52
2023-04-21T23:25:15.595Z,9.48
2023-04-21T23:27:42.512Z,9.49
2023-04-21T23:30:09.562Z,9.57
2023-04-21T23:32:36.723Z,9.57
2023-04-21T23:35:03.761Z,9.65
2023-04-21T23:37:30.845Z,9.57
2023-04-21T23:39:57.485Z,9.51
2023-04-21T23:42:24.132Z,9.37
2023-04-21T23:44:50.698Z,9.27
2023-04-21T23:47:17.077Z,9.28
2023-04-21T23:49:43.718Z,9.11
2023-04-21T23:52:10.289Z,9.02
2023-04-21T23:54:36.878Z,8.97
2023-04-21T23:57:03.451Z,8.86
2023-04-21T23:59:29.950Z,8.82
